x

West Santa Barbara 38 Nm West Of Santa Barbara, Ca (46054) Wave Buoy

4:50 - Sun 30th Apr 2017 All times are PDT. -7 hours from GMT.

  • Sig Wave height 5.6ft
  • Swell Direction
  • Peak Period 11s
  • Average Period 6s
  • Wind
    16mph, 20mph gusts
  • Sea Temp 52°f
  • Luft Temp 53°f
  • Sea Pressure 1017.1mb
  • West Santa Barbara  38 Nm West Of Santa Barbara, Ca
  • West Santa Barbara  38 Nm West Of Santa Barbara, Ca

More Historic Weather Station data

Upgrade to MSW Pro to gain access to the past 30 days of data for over 8000 Wavebouys and Weather Stations around the globe.

Join Pro

Comparision Forecast

View Surf forecast
   
So 04/30 4:50 5.5ft 11s 6s 16 20 mph 1017.1mb 52f 53f
3:50 5ft 11s 6s 18 20 mph 1017.3mb 52f 53f
2:50 6ft 11s 6s 18 22 mph 1017.4mb 53f 53f
1:50 6ft 10s 6s 18 22 mph 1017.9mb 53f 54f
12:50 5ft 11s 6s 20 22 mph 1018.3mb 53f 54f
Sa 04/29 11:50 5ft 11s 6s 20 25 mph 1018.2mb 52f 55f
10:50 5ft 11s 6s 16 20 mph 1018.2mb 53f 55f
9:50 5ft 10s 6s 18 22 mph 1018.5mb 53f 55f
8:50 5.5ft 9s 7s 18 20 mph 1018mb 53f 56f
7:50 5ft 11s 7s 11 13 mph 1017.9mb 53f 55f
5:50 6ft 10s 7s 11 13 mph 1017.4mb 54f 55f
4:50 6ft 11s 7s 11 13 mph 1017.4mb 53f 55f
3:50 6ft 11s 7s 11 13 mph 1017.9mb 53f 55f
2:50 7ft 10s 8s 9 11 mph 1018.2mb 53f 55f
1:50 7ft 10s 8s 7 9 mph 1018.1mb 53f 54f
12:50 6ft 12s 7s 7
mph
1018.4mb 52f 53f
11:50 6ft 9s 7s 7 9 mph 1018.4mb 52f 53f
10:50 6ft 9s 7s 4 7 mph 1018.1mb 52f 54f
9:50 6ft 10s 7s 2 4 mph 1017.6mb 51f 56f
8:50 6ft 10s 7s 7 9 mph 1017mb 50f 53f
7:50 6ft 10s 7s 9 11 mph 1016.6mb 51f 53f
6:50 7ft 10s 7s 9 11 mph 1015.7mb 51f 53f
5:50 7ft 10s 7s 9 11 mph 1015.2mb 51f 53f
4:50 7.5ft 10s 7s 16 18 mph 1014.5mb 51f 53f
3:50 7ft 10s 6s 22 25 mph 1013.8mb 51f 52f
2:50 8ft 10s 7s 22 25 mph 1013.6mb 50f 52f
1:50 9ft 12s 7s 20 25 mph 1013.5mb 50f 52f
12:50 9ft 9s 7s 22 25 mph 1013.4mb 50f 52f
Fr 04/28 11:50 9.5ft 9s 7s 25 29 mph 1013mb 50f 52f
10:50 9.5ft 9s 7s 25 29 mph 1013.2mb 50f 53f
9:50 9ft 8s 6s 29 31 mph 1012.2mb 50f 53f
8:50 10ft 10s 7s 22 27 mph 1012.3mb 50f 54f
7:50 10ft 10s 7s 22 27 mph 1011.5mb 51f 54f
6:50 9.5ft 10s 7s 25 29 mph 1011mb 51f 54f
5:50 9ft 10s 7s 22 27 mph 1011.2mb 51f 54f
4:50 9.5ft 10s 7s 22 27 mph 1011.4mb 51f 54f
3:50 9ft 10s 7s 27 29 mph 1011.6mb 50f 53f
2:50 8.5ft 8s 7s 25 29 mph 1012.3mb 50f 53f
1:50 10.5ft 10s 7s 27 31 mph 1012.4mb 50f 53f
12:50 10ft 9s 7s 27 31 mph 1012.8mb 50f 53f
11:50 10ft 9s 7s 29 34 mph 1013.3mb 50f 53f
10:50 9.5ft 8s 7s 27 34 mph 1013.6mb 50f 52f
9:50 10ft 8s 7s 27 34 mph 1013.1mb 50f 52f
8:50 9ft 9s 6s 29 36 mph 1013.1mb 50f 52f
7:50 9ft 8s 6s 29 36 mph 1013.1mb 50f 52f
6:50 10ft 9s 7s 29 36 mph 1012.3mb 50f 52f
3:50 12ft 9s 7s 31 36 mph 1011mb 50f 53f
2:50 11.5ft 10s 7s 31 36 mph 1011.3mb 50f 53f
1:50 12ft 9s 7s 31 38 mph 1011.5mb 50f 53f
12:50 12ft 10s 7s 31 38 mph 1011.8mb 50f 53f
Do 04/27 11:50 11ft 10s 7s 31 38 mph 1012mb 50f 53f
10:50 13ft 10s 7s 34 40 mph 1012mb 50f 54f
9:50 12ft 9s 7s 31 38 mph 1011.9mb 50f 54f
8:50 12ft 9s 7s 29 36 mph 1011.8mb 50f 54f
7:50 11ft 9s 7s 27 31 mph 1011.6mb 50f 54f
6:50 10ft 9s 7s 27 31 mph 1011.5mb 51f 54f
4:50 9ft 9s 7s 25 29 mph 1011.7mb 51f 54f
3:50 9ft 9s 6s 25 29 mph 1012.3mb 51f 54f
2:50 9ft 8s 6s 25 31 mph 1012.8mb 50f 54f
1:50 9.5ft 10s 6s 27 34 mph 1012.7mb 50f 54f
12:50 9.5ft 9s 7s 27 34 mph 1013.5mb 50f 53f
11:50 9ft 8s 6s 27 31 mph 1013.5mb 50f 53f
10:50 9.5ft 8s 6s 27 29 mph 1013.4mb 50f 53f
9:50 9ft 9s 6s 29 36 mph 1013.5mb 50f 53f
8:50 9ft 8s 6s 27 31 mph 1013.3mb 50f 53f
7:50 9ft 8s 6s 29 36 mph 1013.2mb 50f 52f
6:50 8.5ft 9s 6s 29 36 mph 1012.7mb 50f 52f
5:50 8.5ft 8s 6s 27 36 mph 1012.8mb 50f 53f
4:50 8.5ft 8s 6s 27 36 mph 1012.9mb 50f 53f
3:50 8.5ft 8s 6s 29 36 mph 1012.9mb 50f 53f
2:50 8ft 7s 6s 25 29 mph 1013.5mb 51f 53f
1:50 9ft 7s 6s 27 34 mph 1014mb 51f 53f
12:50 8ft 7s 6s 29 36 mph 1013.5mb 51f 53f
Mi 04/26 11:50 7.5ft 6s 6s 25 31 mph 1013.7mb 50f 53f
10:50 7ft 7s 5s 25 31 mph 1014.2mb 50f 54f
9:50 7ft 6s 5s 29 34 mph 1013.9mb 50f 54f
8:50 7ft 7s 6s 27 31 mph 1013.9mb 50f 54f
7:50 7.5ft 6s 6s 27 34 mph 1013.2mb 51f 54f
6:50 7ft 6s 5s 29 34 mph 1013.5mb 51f 55f
4:50 7ft 9s 6s 27 31 mph 1014mb 51f 54f
3:50 7ft 6s 6s 25 29 mph 1014.6mb 51f 54f
2:50 7ft 9s 6s 22 27 mph 1015.2mb 51f 54f
1:50 6.5ft 10s 6s 20 22 mph 1015.7mb 51f 54f